sensor_id;sensor_type;location;lat;lon;timestamp;P1;durP1;ratioP1;P2;durP2;ratioP2
32633;SDS011;19043;51.012;5.648;2024-02-28T00:01:16;93.63;;;38.88;;
32633;SDS011;19043;51.012;5.648;2024-02-28T00:03:41;90.60;;;38.42;;
32633;SDS011;19043;51.012;5.648;2024-02-28T00:06:06;88.97;;;38.08;;
32633;SDS011;19043;51.012;5.648;2024-02-28T00:08:31;93.38;;;37.58;;
32633;SDS011;19043;51.012;5.648;2024-02-28T00:10:57;79.75;;;37.13;;
32633;SDS011;19043;51.012;5.648;2024-02-28T00:13:22;89.35;;;37.83;;
32633;SDS011;19043;51.012;5.648;2024-02-28T00:15:48;95.55;;;39.28;;
32633;SDS011;19043;51.012;5.648;2024-02-28T00:18:13;94.55;;;40.58;;
32633;SDS011;19043;51.012;5.648;2024-02-28T00:20:38;78.25;;;35.53;;
32633;SDS011;19043;51.012;5.648;2024-02-28T00:23:04;88.38;;;38.13;;
32633;SDS011;19043;51.012;5.648;2024-02-28T00:25:29;99.93;;;41.50;;
32633;SDS011;19043;51.012;5.648;2024-02-28T00:27:54;93.93;;;41.30;;
32633;SDS011;19043;51.012;5.648;2024-02-28T00:30:19;78.32;;;39.08;;
32633;SDS011;19043;51.012;5.648;2024-02-28T00:32:45;87.05;;;38.25;;
32633;SDS011;19043;51.012;5.648;2024-02-28T00:35:10;88.22;;;39.15;;
32633;SDS011;19043;51.012;5.648;2024-02-28T00:37:35;81.32;;;36.33;;
32633;SDS011;19043;51.012;5.648;2024-02-28T00:40:01;87.03;;;41.30;;
32633;SDS011;19043;51.012;5.648;2024-02-28T00:42:26;90.75;;;38.25;;
32633;SDS011;19043;51.012;5.648;2024-02-28T00:44:52;89.93;;;40.55;;
32633;SDS011;19043;51.012;5.648;2024-02-28T00:47:17;89.88;;;37.88;;
32633;SDS011;19043;51.012;5.648;2024-02-28T00:49:43;87.10;;;40.13;;
32633;SDS011;19043;51.012;5.648;2024-02-28T00:52:08;81.80;;;37.38;;
32633;SDS011;19043;51.012;5.648;2024-02-28T00:54:34;86.78;;;40.00;;
32633;SDS011;19043;51.012;5.648;2024-02-28T00:56:59;88.47;;;39.03;;
32633;SDS011;19043;51.012;5.648;2024-02-28T00:59:25;93.65;;;38.13;;
32633;SDS011;19043;51.012;5.648;2024-02-28T01:01:50;79.72;;;36.90;;
32633;SDS011;19043;51.012;5.648;2024-02-28T01:04:16;82.35;;;37.33;;
32633;SDS011;19043;51.012;5.648;2024-02-28T01:06:41;84.07;;;38.08;;
32633;SDS011;19043;51.012;5.648;2024-02-28T01:09:06;80.53;;;34.75;;
32633;SDS011;19043;51.012;5.648;2024-02-28T01:11:32;86.68;;;36.85;;
32633;SDS011;19043;51.012;5.648;2024-02-28T01:13:57;79.18;;;37.13;;
32633;SDS011;19043;51.012;5.648;2024-02-28T01:16:22;90.85;;;38.58;;
32633;SDS011;19043;51.012;5.648;2024-02-28T01:18:47;90.22;;;40.47;;
32633;SDS011;19043;51.012;5.648;2024-02-28T01:21:13;89.60;;;37.80;;
32633;SDS011;19043;51.012;5.648;2024-02-28T01:23:38;97.20;;;39.85;;
32633;SDS011;19043;51.012;5.648;2024-02-28T01:26:03;101.20;;;40.28;;
32633;SDS011;19043;51.012;5.648;2024-02-28T01:28:30;111.10;;;39.72;;
32633;SDS011;19043;51.012;5.648;2024-02-28T01:30:55;79.53;;;37.67;;
32633;SDS011;19043;51.012;5.648;2024-02-28T01:33:20;112.18;;;37.00;;
32633;SDS011;19043;51.012;5.648;2024-02-28T01:35:45;120.15;;;39.42;;
32633;SDS011;19043;51.012;5.648;2024-02-28T01:38:11;99.88;;;38.45;;
32633;SDS011;19043;51.012;5.648;2024-02-28T01:40:36;122.05;;;39.20;;
32633;SDS011;19043;51.012;5.648;2024-02-28T01:43:07;78.10;;;38.70;;
32633;SDS011;19043;51.012;5.648;2024-02-28T01:45:33;110.63;;;37.78;;
32633;SDS011;19043;51.012;5.648;2024-02-28T01:47:58;91.82;;;37.00;;
32633;SDS011;19043;51.012;5.648;2024-02-28T01:50:24;100.13;;;37.38;;
32633;SDS011;19043;51.012;5.648;2024-02-28T01:52:49;105.68;;;37.78;;
32633;SDS011;19043;51.012;5.648;2024-02-28T01:55:14;107.68;;;38.50;;
32633;SDS011;19043;51.012;5.648;2024-02-28T01:57:40;113.50;;;38.03;;
32633;SDS011;19043;51.012;5.648;2024-02-28T02:00:06;108.57;;;38.25;;
32633;SDS011;19043;51.012;5.648;2024-02-28T02:02:33;83.38;;;35.50;;
32633;SDS011;19043;51.012;5.648;2024-02-28T02:04:58;126.13;;;36.65;;
32633;SDS011;19043;51.012;5.648;2024-02-28T02:07:24;78.88;;;35.95;;
32633;SDS011;19043;51.012;5.648;2024-02-28T02:09:51;109.90;;;39.00;;
32633;SDS011;19043;51.012;5.648;2024-02-28T02:12:17;89.07;;;35.53;;
32633;SDS011;19043;51.012;5.648;2024-02-28T02:14:46;106.50;;;35.88;;
32633;SDS011;19043;51.012;5.648;2024-02-28T02:17:12;103.47;;;37.65;;
32633;SDS011;19043;51.012;5.648;2024-02-28T02:19:37;91.60;;;35.70;;
32633;SDS011;19043;51.012;5.648;2024-02-28T02:22:03;93.53;;;34.95;;
32633;SDS011;19043;51.012;5.648;2024-02-28T02:24:30;166.13;;;41.47;;
32633;SDS011;19043;51.012;5.648;2024-02-28T02:26:57;100.53;;;36.50;;
32633;SDS011;19043;51.012;5.648;2024-02-28T02:29:22;134.43;;;39.00;;
32633;SDS011;19043;51.012;5.648;2024-02-28T02:31:47;162.82;;;41.67;;
32633;SDS011;19043;51.012;5.648;2024-02-28T02:34:13;112.32;;;36.97;;
32633;SDS011;19043;51.012;5.648;2024-02-28T02:36:38;98.60;;;36.08;;
32633;SDS011;19043;51.012;5.648;2024-02-28T02:39:03;120.25;;;36.90;;
32633;SDS011;19043;51.012;5.648;2024-02-28T02:41:28;97.05;;;34.55;;
32633;SDS011;19043;51.012;5.648;2024-02-28T02:43:54;112.70;;;37.10;;
32633;SDS011;19043;51.012;5.648;2024-02-28T02:46:19;109.15;;;36.75;;
32633;SDS011;19043;51.012;5.648;2024-02-28T02:48:44;92.22;;;37.30;;
32633;SDS011;19043;51.012;5.648;2024-02-28T02:51:09;86.43;;;37.42;;
32633;SDS011;19043;51.012;5.648;2024-02-28T02:53:35;116.40;;;37.28;;
32633;SDS011;19043;51.012;5.648;2024-02-28T02:56:00;87.85;;;37.25;;
32633;SDS011;19043;51.012;5.648;2024-02-28T02:58:28;134.40;;;37.20;;
32633;SDS011;19043;51.012;5.648;2024-02-28T03:00:53;107.97;;;36.83;;
32633;SDS011;19043;51.012;5.648;2024-02-28T03:03:18;119.15;;;38.13;;
32633;SDS011;19043;51.012;5.648;2024-02-28T03:05:43;86.37;;;36.80;;
32633;SDS011;19043;51.012;5.648;2024-02-28T03:08:09;114.20;;;37.15;;
32633;SDS011;19043;51.012;5.648;2024-02-28T03:10:34;115.85;;;38.33;;
32633;SDS011;19043;51.012;5.648;2024-02-28T03:12:59;101.43;;;38.97;;
32633;SDS011;19043;51.012;5.648;2024-02-28T03:15:25;111.47;;;37.47;;
32633;SDS011;19043;51.012;5.648;2024-02-28T03:17:51;70.78;;;34.50;;
32633;SDS011;19043;51.012;5.648;2024-02-28T03:20:16;81.60;;;35.90;;
32633;SDS011;19043;51.012;5.648;2024-02-28T03:22:41;93.68;;;37.40;;
32633;SDS011;19043;51.012;5.648;2024-02-28T03:25:06;117.03;;;35.40;;
32633;SDS011;19043;51.012;5.648;2024-02-28T03:27:32;76.72;;;36.47;;
32633;SDS011;19043;51.012;5.648;2024-02-28T03:29:57;115.20;;;37.40;;
32633;SDS011;19043;51.012;5.648;2024-02-28T03:32:22;81.70;;;35.05;;
32633;SDS011;19043;51.012;5.648;2024-02-28T03:34:48;104.47;;;37.53;;
32633;SDS011;19043;51.012;5.648;2024-02-28T03:37:14;70.43;;;34.22;;
32633;SDS011;19043;51.012;5.648;2024-02-28T03:39:39;69.65;;;34.05;;
32633;SDS011;19043;51.012;5.648;2024-02-28T03:42:04;83.50;;;34.53;;
32633;SDS011;19043;51.012;5.648;2024-02-28T03:44:29;78.35;;;35.20;;
32633;SDS011;19043;51.012;5.648;2024-02-28T03:46:55;93.15;;;34.63;;
32633;SDS011;19043;51.012;5.648;2024-02-28T03:49:20;117.63;;;37.00;;
32633;SDS011;19043;51.012;5.648;2024-02-28T03:51:45;104.35;;;34.75;;
32633;SDS011;19043;51.012;5.648;2024-02-28T03:54:10;95.72;;;35.20;;
32633;SDS011;19043;51.012;5.648;2024-02-28T03:56:36;82.78;;;33.95;;
32633;SDS011;19043;51.012;5.648;2024-02-28T03:59:01;113.97;;;35.25;;
32633;SDS011;19043;51.012;5.648;2024-02-28T04:01:26;99.85;;;33.70;;
32633;SDS011;19043;51.012;5.648;2024-02-28T04:03:51;104.25;;;35.05;;
32633;SDS011;19043;51.012;5.648;2024-02-28T04:06:17;85.32;;;35.10;;
32633;SDS011;19043;51.012;5.648;2024-02-28T04:08:42;93.25;;;35.55;;
32633;SDS011;19043;51.012;5.648;2024-02-28T04:11:07;110.88;;;36.42;;
32633;SDS011;19043;51.012;5.648;2024-02-28T04:13:32;97.25;;;34.42;;
32633;SDS011;19043;51.012;5.648;2024-02-28T04:15:58;83.68;;;38.03;;
32633;SDS011;19043;51.012;5.648;2024-02-28T04:18:23;138.38;;;37.58;;
32633;SDS011;19043;51.012;5.648;2024-02-28T04:20:48;104.50;;;34.67;;
32633;SDS011;19043;51.012;5.648;2024-02-28T04:23:13;120.03;;;35.90;;
32633;SDS011;19043;51.012;5.648;2024-02-28T04:25:39;114.72;;;34.55;;
32633;SDS011;19043;51.012;5.648;2024-02-28T04:28:05;100.47;;;33.92;;
32633;SDS011;19043;51.012;5.648;2024-02-28T04:30:31;98.30;;;33.38;;
32633;SDS011;19043;51.012;5.648;2024-02-28T04:32:56;103.95;;;33.85;;
32633;SDS011;19043;51.012;5.648;2024-02-28T04:35:21;132.38;;;33.70;;
32633;SDS011;19043;51.012;5.648;2024-02-28T04:37:46;100.30;;;32.67;;
32633;SDS011;19043;51.012;5.648;2024-02-28T04:40:12;98.85;;;34.08;;
32633;SDS011;19043;51.012;5.648;2024-02-28T04:42:37;90.78;;;31.48;;
32633;SDS011;19043;51.012;5.648;2024-02-28T04:45:03;93.18;;;33.10;;
32633;SDS011;19043;51.012;5.648;2024-02-28T04:47:28;96.28;;;33.60;;
32633;SDS011;19043;51.012;5.648;2024-02-28T04:49:54;87.68;;;31.92;;
32633;SDS011;19043;51.012;5.648;2024-02-28T04:52:19;76.85;;;30.95;;
32633;SDS011;19043;51.012;5.648;2024-02-28T04:54:45;77.80;;;30.23;;
32633;SDS011;19043;51.012;5.648;2024-02-28T04:57:10;107.28;;;34.47;;
32633;SDS011;19043;51.012;5.648;2024-02-28T04:59:35;70.35;;;31.00;;
32633;SDS011;19043;51.012;5.648;2024-02-28T05:02:00;81.15;;;32.03;;
32633;SDS011;19043;51.012;5.648;2024-02-28T05:04:26;68.03;;;29.17;;
32633;SDS011;19043;51.012;5.648;2024-02-28T05:06:51;87.15;;;32.05;;
32633;SDS011;19043;51.012;5.648;2024-02-28T05:09:17;91.38;;;31.42;;
32633;SDS011;19043;51.012;5.648;2024-02-28T05:11:43;100.18;;;30.05;;
32633;SDS011;19043;51.012;5.648;2024-02-28T05:14:09;72.68;;;28.63;;
32633;SDS011;19043;51.012;5.648;2024-02-28T05:16:35;84.35;;;28.98;;
32633;SDS011;19043;51.012;5.648;2024-02-28T05:19:00;72.70;;;26.98;;
32633;SDS011;19043;51.012;5.648;2024-02-28T05:21:25;67.68;;;27.20;;
32633;SDS011;19043;51.012;5.648;2024-02-28T05:23:51;68.43;;;24.25;;
32633;SDS011;19043;51.012;5.648;2024-02-28T05:26:16;57.13;;;26.17;;
32633;SDS011;19043;51.012;5.648;2024-02-28T05:28:41;54.35;;;24.92;;
32633;SDS011;19043;51.012;5.648;2024-02-28T05:31:20;63.60;;;26.27;;
32633;SDS011;19043;51.012;5.648;2024-02-28T05:33:46;80.95;;;25.05;;
32633;SDS011;19043;51.012;5.648;2024-02-28T05:36:11;54.80;;;25.50;;
32633;SDS011;19043;51.012;5.648;2024-02-28T05:38:37;49.63;;;24.38;;
32633;SDS011;19043;51.012;5.648;2024-02-28T05:41:02;57.35;;;24.58;;
32633;SDS011;19043;51.012;5.648;2024-02-28T05:43:27;57.75;;;23.52;;
32633;SDS011;19043;51.012;5.648;2024-02-28T05:45:52;51.00;;;24.80;;
32633;SDS011;19043;51.012;5.648;2024-02-28T05:48:18;55.72;;;25.25;;
32633;SDS011;19043;51.012;5.648;2024-02-28T05:50:43;58.30;;;25.35;;
32633;SDS011;19043;51.012;5.648;2024-02-28T05:53:08;45.03;;;26.02;;
32633;SDS011;19043;51.012;5.648;2024-02-28T05:55:34;51.10;;;24.13;;
32633;SDS011;19043;51.012;5.648;2024-02-28T05:57:59;49.45;;;23.55;;
32633;SDS011;19043;51.012;5.648;2024-02-28T06:00:24;64.87;;;26.30;;
32633;SDS011;19043;51.012;5.648;2024-02-28T06:02:49;58.25;;;25.30;;
32633;SDS011;19043;51.012;5.648;2024-02-28T06:05:15;61.85;;;26.02;;
32633;SDS011;19043;51.012;5.648;2024-02-28T06:07:40;51.40;;;24.48;;
32633;SDS011;19043;51.012;5.648;2024-02-28T06:10:05;50.35;;;26.13;;
32633;SDS011;19043;51.012;5.648;2024-02-28T06:12:31;54.22;;;26.10;;
32633;SDS011;19043;51.012;5.648;2024-02-28T06:14:56;59.53;;;25.30;;
32633;SDS011;19043;51.012;5.648;2024-02-28T06:17:21;53.72;;;27.00;;
32633;SDS011;19043;51.012;5.648;2024-02-28T06:19:47;61.78;;;28.58;;
32633;SDS011;19043;51.012;5.648;2024-02-28T06:22:12;57.97;;;27.25;;
32633;SDS011;19043;51.012;5.648;2024-02-28T06:24:38;65.38;;;27.85;;
32633;SDS011;19043;51.012;5.648;2024-02-28T06:27:04;66.25;;;27.55;;
32633;SDS011;19043;51.012;5.648;2024-02-28T06:29:30;60.83;;;28.20;;
32633;SDS011;19043;51.012;5.648;2024-02-28T06:31:55;61.40;;;28.20;;
32633;SDS011;19043;51.012;5.648;2024-02-28T06:34:21;60.10;;;26.45;;
32633;SDS011;19043;51.012;5.648;2024-02-28T06:36:47;61.30;;;27.83;;
32633;SDS011;19043;51.012;5.648;2024-02-28T06:39:12;69.40;;;26.38;;
32633;SDS011;19043;51.012;5.648;2024-02-28T06:41:38;64.80;;;27.52;;
32633;SDS011;19043;51.012;5.648;2024-02-28T06:44:03;59.22;;;26.60;;
32633;SDS011;19043;51.012;5.648;2024-02-28T06:46:28;71.88;;;26.85;;
32633;SDS011;19043;51.012;5.648;2024-02-28T06:48:53;71.60;;;25.23;;
32633;SDS011;19043;51.012;5.648;2024-02-28T06:51:19;71.53;;;25.08;;
32633;SDS011;19043;51.012;5.648;2024-02-28T06:53:44;76.40;;;24.92;;
32633;SDS011;19043;51.012;5.648;2024-02-28T06:56:09;68.25;;;24.52;;
32633;SDS011;19043;51.012;5.648;2024-02-28T06:58:35;70.45;;;25.17;;
32633;SDS011;19043;51.012;5.648;2024-02-28T07:01:00;55.17;;;23.55;;
32633;SDS011;19043;51.012;5.648;2024-02-28T07:03:26;53.97;;;24.98;;
32633;SDS011;19043;51.012;5.648;2024-02-28T07:05:51;59.92;;;23.52;;
32633;SDS011;19043;51.012;5.648;2024-02-28T07:08:18;57.03;;;22.80;;
32633;SDS011;19043;51.012;5.648;2024-02-28T07:10:43;57.35;;;22.52;;
32633;SDS011;19043;51.012;5.648;2024-02-28T07:13:12;67.50;;;23.10;;
32633;SDS011;19043;51.012;5.648;2024-02-28T07:15:37;48.63;;;20.55;;
32633;SDS011;19043;51.012;5.648;2024-02-28T07:18:05;55.13;;;20.10;;
32633;SDS011;19043;51.012;5.648;2024-02-28T07:20:30;45.90;;;20.45;;
32633;SDS011;19043;51.012;5.648;2024-02-28T07:22:55;58.65;;;19.80;;
32633;SDS011;19043;51.012;5.648;2024-02-28T07:25:20;61.20;;;19.42;;
32633;SDS011;19043;51.012;5.648;2024-02-28T07:27:47;68.15;;;20.00;;
32633;SDS011;19043;51.012;5.648;2024-02-28T07:30:12;48.88;;;18.75;;
32633;SDS011;19043;51.012;5.648;2024-02-28T07:32:37;64.72;;;20.95;;
32633;SDS011;19043;51.012;5.648;2024-02-28T07:35:03;63.95;;;22.10;;
32633;SDS011;19043;51.012;5.648;2024-02-28T07:37:29;77.50;;;20.67;;
32633;SDS011;19043;51.012;5.648;2024-02-28T07:39:54;77.90;;;21.58;;
32633;SDS011;19043;51.012;5.648;2024-02-28T07:42:19;66.25;;;20.60;;
32633;SDS011;19043;51.012;5.648;2024-02-28T07:44:44;75.57;;;22.00;;
32633;SDS011;19043;51.012;5.648;2024-02-28T07:47:10;80.28;;;19.77;;
32633;SDS011;19043;51.012;5.648;2024-02-28T07:49:35;52.55;;;19.55;;
32633;SDS011;19043;51.012;5.648;2024-02-28T07:52:00;74.63;;;19.67;;
32633;SDS011;19043;51.012;5.648;2024-02-28T07:54:25;54.33;;;19.77;;
32633;SDS011;19043;51.012;5.648;2024-02-28T07:56:51;53.05;;;19.70;;
32633;SDS011;19043;51.012;5.648;2024-02-28T07:59:17;73.63;;;20.33;;
32633;SDS011;19043;51.012;5.648;2024-02-28T08:01:43;69.35;;;21.20;;
32633;SDS011;19043;51.012;5.648;2024-02-28T08:04:09;59.92;;;21.00;;
32633;SDS011;19043;51.012;5.648;2024-02-28T08:06:35;67.70;;;20.33;;
32633;SDS011;19043;51.012;5.648;2024-02-28T08:09:00;59.92;;;19.45;;
32633;SDS011;19043;51.012;5.648;2024-02-28T08:11:25;59.45;;;19.83;;
32633;SDS011;19043;51.012;5.648;2024-02-28T08:13:51;72.15;;;19.50;;
32633;SDS011;19043;51.012;5.648;2024-02-28T08:16:16;58.55;;;21.40;;
32633;SDS011;19043;51.012;5.648;2024-02-28T08:18:42;78.05;;;21.42;;
32633;SDS011;19043;51.012;5.648;2024-02-28T08:21:08;75.93;;;20.90;;
32633;SDS011;19043;51.012;5.648;2024-02-28T08:23:33;58.95;;;20.70;;
32633;SDS011;19043;51.012;5.648;2024-02-28T08:25:58;72.50;;;22.02;;
32633;SDS011;19043;51.012;5.648;2024-02-28T08:28:23;80.90;;;22.65;;
32633;SDS011;19043;51.012;5.648;2024-02-28T08:30:49;75.57;;;21.30;;
32633;SDS011;19043;51.012;5.648;2024-02-28T08:33:14;56.47;;;21.65;;
32633;SDS011;19043;51.012;5.648;2024-02-28T08:35:40;78.80;;;22.15;;
32633;SDS011;19043;51.012;5.648;2024-02-28T08:38:05;60.65;;;21.27;;
32633;SDS011;19043;51.012;5.648;2024-02-28T08:40:30;61.33;;;22.20;;
32633;SDS011;19043;51.012;5.648;2024-02-28T08:42:55;58.92;;;21.75;;
32633;SDS011;19043;51.012;5.648;2024-02-28T08:45:24;66.65;;;21.52;;
32633;SDS011;19043;51.012;5.648;2024-02-28T08:47:49;69.20;;;22.23;;
32633;SDS011;19043;51.012;5.648;2024-02-28T08:50:15;65.35;;;21.33;;
32633;SDS011;19043;51.012;5.648;2024-02-28T08:52:40;62.25;;;21.60;;
32633;SDS011;19043;51.012;5.648;2024-02-28T08:55:05;57.85;;;21.88;;
32633;SDS011;19043;51.012;5.648;2024-02-28T08:57:31;71.57;;;23.40;;
32633;SDS011;19043;51.012;5.648;2024-02-28T08:59:56;59.38;;;20.55;;
32633;SDS011;19043;51.012;5.648;2024-02-28T09:02:21;64.03;;;22.30;;
32633;SDS011;19043;51.012;5.648;2024-02-28T09:04:47;58.78;;;21.85;;
32633;SDS011;19043;51.012;5.648;2024-02-28T09:07:16;67.95;;;21.80;;
32633;SDS011;19043;51.012;5.648;2024-02-28T09:09:44;67.75;;;22.02;;
32633;SDS011;19043;51.012;5.648;2024-02-28T09:12:09;56.60;;;21.52;;
32633;SDS011;19043;51.012;5.648;2024-02-28T09:14:35;57.88;;;21.50;;
32633;SDS011;19043;51.012;5.648;2024-02-28T09:17:00;64.50;;;21.73;;
32633;SDS011;19043;51.012;5.648;2024-02-28T09:19:28;63.00;;;20.48;;
32633;SDS011;19043;51.012;5.648;2024-02-28T09:21:53;55.75;;;20.67;;
32633;SDS011;19043;51.012;5.648;2024-02-28T09:24:19;55.27;;;21.90;;
32633;SDS011;19043;51.012;5.648;2024-02-28T09:26:44;59.40;;;21.65;;
32633;SDS011;19043;51.012;5.648;2024-02-28T09:29:09;55.50;;;21.23;;
32633;SDS011;19043;51.012;5.648;2024-02-28T09:31:34;61.65;;;23.45;;
32633;SDS011;19043;51.012;5.648;2024-02-28T09:34:00;71.90;;;23.45;;
32633;SDS011;19043;51.012;5.648;2024-02-28T09:36:28;62.80;;;24.15;;
32633;SDS011;19043;51.012;5.648;2024-02-28T09:38:53;56.45;;;23.92;;
32633;SDS011;19043;51.012;5.648;2024-02-28T09:41:18;50.03;;;20.70;;
32633;SDS011;19043;51.012;5.648;2024-02-28T09:43:44;57.63;;;24.23;;
32633;SDS011;19043;51.012;5.648;2024-02-28T09:46:09;55.05;;;22.58;;
32633;SDS011;19043;51.012;5.648;2024-02-28T09:48:40;53.47;;;23.35;;
32633;SDS011;19043;51.012;5.648;2024-02-28T09:51:08;58.67;;;24.10;;
32633;SDS011;19043;51.012;5.648;2024-02-28T09:53:34;70.25;;;23.23;;
32633;SDS011;19043;51.012;5.648;2024-02-28T09:55:59;52.58;;;23.35;;
32633;SDS011;19043;51.012;5.648;2024-02-28T09:58:25;60.00;;;24.38;;
32633;SDS011;19043;51.012;5.648;2024-02-28T10:00:51;47.33;;;22.67;;
32633;SDS011;19043;51.012;5.648;2024-02-28T10:03:18;52.80;;;24.67;;
32633;SDS011;19043;51.012;5.648;2024-02-28T10:05:45;56.50;;;24.85;;
32633;SDS011;19043;51.012;5.648;2024-02-28T10:08:11;48.75;;;22.50;;
32633;SDS011;19043;51.012;5.648;2024-02-28T10:10:36;51.10;;;22.17;;
32633;SDS011;19043;51.012;5.648;2024-02-28T10:13:03;46.08;;;21.27;;
32633;SDS011;19043;51.012;5.648;2024-02-28T10:15:30;50.75;;;21.33;;
32633;SDS011;19043;51.012;5.648;2024-02-28T10:17:55;48.55;;;22.23;;
32633;SDS011;19043;51.012;5.648;2024-02-28T10:20:21;46.00;;;20.83;;
32633;SDS011;19043;51.012;5.648;2024-02-28T10:22:46;43.58;;;21.75;;
32633;SDS011;19043;51.012;5.648;2024-02-28T10:25:11;38.67;;;19.67;;
32633;SDS011;19043;51.012;5.648;2024-02-28T10:27:36;49.78;;;22.23;;
32633;SDS011;19043;51.012;5.648;2024-02-28T10:30:02;47.53;;;21.17;;
32633;SDS011;19043;51.012;5.648;2024-02-28T10:32:31;42.90;;;20.52;;
32633;SDS011;19043;51.012;5.648;2024-02-28T10:34:57;46.30;;;22.00;;
32633;SDS011;19043;51.012;5.648;2024-02-28T10:37:23;41.90;;;19.70;;
32633;SDS011;19043;51.012;5.648;2024-02-28T10:39:49;43.05;;;20.35;;
32633;SDS011;19043;51.012;5.648;2024-02-28T10:42:16;40.13;;;18.90;;
32633;SDS011;19043;51.012;5.648;2024-02-28T10:44:42;42.47;;;19.80;;
32633;SDS011;19043;51.012;5.648;2024-02-28T10:47:07;37.85;;;18.65;;
32633;SDS011;19043;51.012;5.648;2024-02-28T10:49:33;41.40;;;19.75;;
32633;SDS011;19043;51.012;5.648;2024-02-28T10:51:58;34.25;;;18.80;;
32633;SDS011;19043;51.012;5.648;2024-02-28T10:54:24;36.88;;;19.02;;
32633;SDS011;19043;51.012;5.648;2024-02-28T10:56:50;41.55;;;18.73;;
32633;SDS011;19043;51.012;5.648;2024-02-28T10:59:16;36.70;;;19.40;;
32633;SDS011;19043;51.012;5.648;2024-02-28T11:01:42;36.20;;;18.17;;
32633;SDS011;19043;51.012;5.648;2024-02-28T11:04:08;37.80;;;17.85;;
32633;SDS011;19043;51.012;5.648;2024-02-28T11:06:34;35.65;;;17.70;;
32633;SDS011;19043;51.012;5.648;2024-02-28T11:09:00;39.30;;;16.30;;
32633;SDS011;19043;51.012;5.648;2024-02-28T11:11:29;33.03;;;15.52;;
32633;SDS011;19043;51.012;5.648;2024-02-28T11:13:56;35.60;;;15.10;;
32633;SDS011;19043;51.012;5.648;2024-02-28T11:16:28;30.98;;;14.23;;
32633;SDS011;19043;51.012;5.648;2024-02-28T11:18:54;30.38;;;15.07;;
32633;SDS011;19043;51.012;5.648;2024-02-28T11:21:19;28.98;;;14.32;;
32633;SDS011;19043;51.012;5.648;2024-02-28T11:23:47;23.48;;;11.80;;
32633;SDS011;19043;51.012;5.648;2024-02-28T11:26:13;24.95;;;11.90;;
32633;SDS011;19043;51.012;5.648;2024-02-28T11:28:39;21.63;;;11.63;;
32633;SDS011;19043;51.012;5.648;2024-02-28T11:31:04;18.83;;;10.10;;
32633;SDS011;19043;51.012;5.648;2024-02-28T11:33:30;25.23;;;11.27;;
32633;SDS011;19043;51.012;5.648;2024-02-28T11:35:58;18.55;;;10.48;;
32633;SDS011;19043;51.012;5.648;2024-02-28T11:38:24;18.75;;;10.25;;
32633;SDS011;19043;51.012;5.648;2024-02-28T11:40:50;22.08;;;11.18;;
32633;SDS011;19043;51.012;5.648;2024-02-28T11:43:15;17.92;;;8.75;;
32633;SDS011;19043;51.012;5.648;2024-02-28T11:45:40;15.98;;;9.38;;
32633;SDS011;19043;51.012;5.648;2024-02-28T11:48:06;14.13;;;8.30;;
32633;SDS011;19043;51.012;5.648;2024-02-28T11:50:32;15.35;;;8.18;;
32633;SDS011;19043;51.012;5.648;2024-02-28T11:52:57;15.17;;;8.27;;
32633;SDS011;19043;51.012;5.648;2024-02-28T11:55:24;18.73;;;9.03;;
32633;SDS011;19043;51.012;5.648;2024-02-28T11:57:49;17.20;;;8.82;;
32633;SDS011;19043;51.012;5.648;2024-02-28T12:00:15;15.77;;;7.57;;
32633;SDS011;19043;51.012;5.648;2024-02-28T12:02:40;14.70;;;8.43;;
32633;SDS011;19043;51.012;5.648;2024-02-28T12:05:06;19.52;;;9.27;;
32633;SDS011;19043;51.012;5.648;2024-02-28T12:07:31;15.55;;;7.93;;
32633;SDS011;19043;51.012;5.648;2024-02-28T12:09:57;14.05;;;6.95;;
32633;SDS011;19043;51.012;5.648;2024-02-28T12:12:22;8.70;;;5.22;;
32633;SDS011;19043;51.012;5.648;2024-02-28T12:14:48;8.68;;;5.38;;
32633;SDS011;19043;51.012;5.648;2024-02-28T12:17:14;13.63;;;4.83;;
32633;SDS011;19043;51.012;5.648;2024-02-28T12:19:39;7.75;;;3.42;;
32633;SDS011;19043;51.012;5.648;2024-02-28T12:22:05;4.60;;;2.78;;
32633;SDS011;19043;51.012;5.648;2024-02-28T12:24:30;4.60;;;2.07;;
32633;SDS011;19043;51.012;5.648;2024-02-28T12:26:55;7.10;;;2.88;;
32633;SDS011;19043;51.012;5.648;2024-02-28T12:29:20;4.68;;;1.73;;
32633;SDS011;19043;51.012;5.648;2024-02-28T12:31:46;4.13;;;1.47;;
32633;SDS011;19043;51.012;5.648;2024-02-28T12:34:11;2.10;;;0.90;;
32633;SDS011;19043;51.012;5.648;2024-02-28T12:36:36;1.67;;;0.63;;
32633;SDS011;19043;51.012;5.648;2024-02-28T12:39:02;2.45;;;1.15;;
32633;SDS011;19043;51.012;5.648;2024-02-28T12:41:27;3.03;;;1.13;;
32633;SDS011;19043;51.012;5.648;2024-02-28T12:43:53;2.28;;;0.90;;
32633;SDS011;19043;51.012;5.648;2024-02-28T12:46:18;3.97;;;1.35;;
32633;SDS011;19043;51.012;5.648;2024-02-28T12:48:43;1.63;;;0.70;;
32633;SDS011;19043;51.012;5.648;2024-02-28T12:51:20;1.55;;;0.55;;
32633;SDS011;19043;51.012;5.648;2024-02-28T12:53:46;1.48;;;0.50;;
32633;SDS011;19043;51.012;5.648;2024-02-28T12:56:12;1.50;;;0.60;;
32633;SDS011;19043;51.012;5.648;2024-02-28T12:58:37;2.72;;;0.75;;
32633;SDS011;19043;51.012;5.648;2024-02-28T13:01:03;1.13;;;0.45;;
32633;SDS011;19043;51.012;5.648;2024-02-28T13:03:29;1.98;;;0.40;;
32633;SDS011;19043;51.012;5.648;2024-02-28T13:05:55;1.15;;;0.20;;
32633;SDS011;19043;51.012;5.648;2024-02-28T13:08:20;1.57;;;0.30;;
32633;SDS011;19043;51.012;5.648;2024-02-28T13:10:45;1.50;;;0.30;;
32633;SDS011;19043;51.012;5.648;2024-02-28T13:13:10;0.70;;;0.20;;
32633;SDS011;19043;51.012;5.648;2024-02-28T13:15:36;0.63;;;0.20;;
32633;SDS011;19043;51.012;5.648;2024-02-28T13:18:01;0.85;;;0.25;;
32633;SDS011;19043;51.012;5.648;2024-02-28T13:20:32;1.67;;;0.50;;
32633;SDS011;19043;51.012;5.648;2024-02-28T13:22:57;2.13;;;0.30;;
32633;SDS011;19043;51.012;5.648;2024-02-28T13:25:23;1.27;;;0.43;;
32633;SDS011;19043;51.012;5.648;2024-02-28T13:27:48;1.63;;;0.70;;
32633;SDS011;19043;51.012;5.648;2024-02-28T13:30:13;1.60;;;0.60;;
32633;SDS011;19043;51.012;5.648;2024-02-28T13:32:40;1.48;;;0.47;;
32633;SDS011;19043;51.012;5.648;2024-02-28T13:35:05;0.82;;;0.30;;
32633;SDS011;19043;51.012;5.648;2024-02-28T13:37:31;0.98;;;0.30;;
32633;SDS011;19043;51.012;5.648;2024-02-28T13:39:58;0.60;;;0.20;;
32633;SDS011;19043;51.012;5.648;2024-02-28T13:42:23;2.58;;;0.30;;
32633;SDS011;19043;51.012;5.648;2024-02-28T13:44:49;1.48;;;0.40;;
32633;SDS011;19043;51.012;5.648;2024-02-28T13:47:14;2.92;;;0.40;;
32633;SDS011;19043;51.012;5.648;2024-02-28T13:49:40;2.07;;;0.67;;
32633;SDS011;19043;51.012;5.648;2024-02-28T13:52:05;1.50;;;0.57;;
32633;SDS011;19043;51.012;5.648;2024-02-28T13:54:30;1.92;;;0.80;;
32633;SDS011;19043;51.012;5.648;2024-02-28T13:56:56;1.73;;;0.77;;
32633;SDS011;19043;51.012;5.648;2024-02-28T13:59:21;2.78;;;0.82;;
32633;SDS011;19043;51.012;5.648;2024-02-28T14:01:47;2.42;;;1.02;;
32633;SDS011;19043;51.012;5.648;2024-02-28T14:04:12;2.75;;;1.00;;
32633;SDS011;19043;51.012;5.648;2024-02-28T14:06:37;3.22;;;0.82;;
32633;SDS011;19043;51.012;5.648;2024-02-28T14:09:02;1.33;;;0.43;;
32633;SDS011;19043;51.012;5.648;2024-02-28T14:11:28;1.08;;;0.40;;
32633;SDS011;19043;51.012;5.648;2024-02-28T14:13:54;1.17;;;0.50;;